Cherkasy, Ukraine
Current Conditions -  °F | °C
As of 10:00 PM on Thursday 23 Oct 2014 (Local Time) from UKBB Reporting Station
Clear Clear  
Wind Chill: 21°   Ceiling: Unl
Heat Index: 32°   Visibility: 6mi
Dew Point: 18°   Wind: 18mph
Humidity: 55%   Direction: 60°ENE
Pressure: 30.27"   Gusts: NA
Location:  49.43°N, 32.07°E
Report Text: UKBB 231900Z 06008MPS CAVOK 00/M08 Q1025 88CLRD95 NOSIG
Loading
Personal Weather Stations






























Interactive Weather Map
Tropical Storm Tracking
New forecast layout! Learn more

10-Day Weather Forecast

Advertisements
Track Severe Weather on mobile